createdAt,value
2017-10-12T00:00:02.141Z,12.73
2017-10-12T00:02:30.517Z,12.90
2017-10-12T00:04:58.077Z,13.30
2017-10-12T00:07:25.656Z,13.40
2017-10-12T00:09:53.274Z,13.00
2017-10-12T00:12:20.889Z,13.30
2017-10-12T00:14:48.469Z,13.30
2017-10-12T00:17:16.793Z,13.03
2017-10-12T00:19:44.377Z,13.77
2017-10-12T00:22:11.968Z,14.03
2017-10-12T00:24:40.316Z,12.50
2017-10-12T00:27:07.905Z,13.10
2017-10-12T00:29:35.493Z,13.10
2017-10-12T00:32:03.137Z,12.37
2017-10-12T00:34:30.697Z,13.00
2017-10-12T00:36:58.279Z,12.77
2017-10-12T00:39:26.121Z,13.07
2017-10-12T00:41:53.678Z,12.43
2017-10-12T00:44:22.150Z,11.73
2017-10-12T00:46:49.733Z,12.50
2017-10-12T00:49:17.289Z,13.20
2017-10-12T00:51:44.901Z,12.20
2017-10-12T00:54:12.493Z,11.67
2017-10-12T00:56:40.071Z,12.10
2017-10-12T00:59:07.697Z,12.00
2017-10-12T01:01:35.305Z,12.30
2017-10-12T01:04:02.872Z,11.90
2017-10-12T01:06:30.445Z,12.37
2017-10-12T01:08:58.056Z,13.13
2017-10-12T01:11:25.944Z,12.70
2017-10-12T01:13:53.552Z,12.57
2017-10-12T01:16:21.145Z,12.70
2017-10-12T01:18:48.709Z,12.40
2017-10-12T01:21:16.334Z,11.30
2017-10-12T01:23:44.765Z,11.83
2017-10-12T01:26:12.428Z,11.87
2017-10-12T01:28:40.069Z,13.10
2017-10-12T01:31:07.705Z,10.83
2017-10-12T01:33:35.333Z,11.37
2017-10-12T01:36:02.949Z,12.13
2017-10-12T01:38:30.616Z,11.30
2017-10-12T01:40:58.233Z,11.67
2017-10-12T01:43:25.825Z,11.53
2017-10-12T01:45:53.469Z,11.33
2017-10-12T01:48:32.848Z,11.43
2017-10-12T01:51:00.501Z,12.63
2017-10-12T01:53:28.095Z,11.57
2017-10-12T01:55:55.680Z,12.63
2017-10-12T01:58:23.313Z,10.43
2017-10-12T02:00:50.951Z,11.53
2017-10-12T02:03:18.557Z,11.20
2017-10-12T02:05:46.925Z,12.10
2017-10-12T02:08:14.496Z,11.20
2017-10-12T02:10:42.093Z,12.50
2017-10-12T02:13:09.678Z,10.83
2017-10-12T02:15:37.309Z,10.50
2017-10-12T02:18:04.945Z,11.17
2017-10-12T02:20:32.582Z,10.60
2017-10-12T02:23:00.180Z,10.80
2017-10-12T02:25:28.552Z,11.10
2017-10-12T02:27:56.181Z,10.70
2017-10-12T02:30:23.769Z,11.67
2017-10-12T02:32:51.357Z,11.47
2017-10-12T02:35:18.961Z,11.27
2017-10-12T02:37:46.560Z,11.00
2017-10-12T02:40:14.157Z,10.73
2017-10-12T02:42:41.801Z,11.80
2017-10-12T02:45:09.421Z,10.90
2017-10-12T02:47:37.024Z,11.30
2017-10-12T02:50:04.666Z,10.40
2017-10-12T02:52:32.280Z,11.30
2017-10-12T02:54:59.886Z,10.90
2017-10-12T02:57:27.497Z,10.77
2017-10-12T02:59:55.529Z,10.50
2017-10-12T03:02:23.130Z,10.30
2017-10-12T03:04:50.716Z,10.37
2017-10-12T03:07:18.334Z,9.40
2017-10-12T03:09:45.922Z,10.70
2017-10-12T03:12:13.566Z,9.53
2017-10-12T03:14:41.126Z,10.23
2017-10-12T03:17:08.753Z,11.40
2017-10-12T03:19:36.361Z,10.57
2017-10-12T03:22:03.944Z,10.83
2017-10-12T03:24:31.553Z,10.33
2017-10-12T03:26:59.161Z,10.00
2017-10-12T03:29:26.713Z,9.83
2017-10-12T03:31:54.266Z,8.93
2017-10-12T03:34:21.849Z,9.60
2017-10-12T03:36:49.453Z,9.50
2017-10-12T03:39:17.014Z,11.03
2017-10-12T03:41:44.645Z,10.10
2017-10-12T03:44:12.269Z,11.00
2017-10-12T03:46:39.906Z,10.33
2017-10-12T03:49:07.541Z,9.53
2017-10-12T03:51:35.132Z,9.93
2017-10-12T03:54:02.744Z,10.20
2017-10-12T03:56:30.352Z,9.80
2017-10-12T03:58:57.952Z,10.20
2017-10-12T04:01:25.533Z,9.60
2017-10-12T04:04:03.746Z,9.77
2017-10-12T04:06:41.459Z,10.00
2017-10-12T04:09:18.183Z,9.90
2017-10-12T04:11:45.764Z,9.00
2017-10-12T04:14:13.321Z,8.90
2017-10-12T04:16:40.901Z,9.50
2017-10-12T04:19:08.453Z,9.63
2017-10-12T04:21:36.033Z,9.57
2017-10-12T04:24:03.616Z,9.60
2017-10-12T04:26:31.197Z,9.07
2017-10-12T04:28:58.780Z,8.40
2017-10-12T04:31:26.364Z,9.23
2017-10-12T04:33:53.917Z,9.83
2017-10-12T04:36:21.493Z,9.30
2017-10-12T04:38:49.957Z,8.90
2017-10-12T04:41:17.538Z,9.80
2017-10-12T04:43:45.097Z,9.73
2017-10-12T04:46:12.701Z,9.20
2017-10-12T04:48:41.069Z,8.93
2017-10-12T04:51:08.652Z,9.17
2017-10-12T04:53:36.261Z,9.63
2017-10-12T04:56:03.845Z,9.30
2017-10-12T04:58:31.409Z,9.40
2017-10-12T05:00:58.993Z,9.00
2017-10-12T05:03:26.568Z,9.20
2017-10-12T05:05:54.149Z,9.30
2017-10-12T05:08:21.730Z,8.70
2017-10-12T05:10:49.291Z,9.30
2017-10-12T05:13:16.865Z,8.80
2017-10-12T05:15:44.486Z,9.23
2017-10-12T05:18:12.070Z,9.20
2017-10-12T05:20:39.652Z,8.27
2017-10-12T05:23:08.089Z,8.60
2017-10-12T05:25:35.649Z,9.10
2017-10-12T05:28:03.220Z,8.77
2017-10-12T05:30:30.853Z,8.87
2017-10-12T05:32:58.438Z,9.00
2017-10-12T05:35:26.018Z,8.53
2017-10-12T05:37:53.624Z,8.37
2017-10-12T05:40:21.764Z,9.27
2017-10-12T05:42:49.345Z,8.40
2017-10-12T05:45:17.709Z,9.10
2017-10-12T05:47:45.261Z,8.57
2017-10-12T05:50:13.609Z,7.80
2017-10-12T05:52:41.213Z,8.43
2017-10-12T05:55:09.569Z,9.17
2017-10-12T05:57:37.177Z,9.33
2017-10-12T06:00:04.785Z,8.27
2017-10-12T06:02:32.393Z,8.17
2017-10-12T06:05:00.010Z,8.50
2017-10-12T06:07:27.589Z,8.50
2017-10-12T06:09:55.205Z,8.70
2017-10-12T06:12:22.792Z,7.77
2017-10-12T06:14:50.401Z,8.33
2017-10-12T06:17:18.009Z,7.60
2017-10-12T06:19:45.585Z,6.67
2017-10-12T06:22:13.889Z,7.53
2017-10-12T06:24:41.500Z,6.43
2017-10-12T06:27:09.589Z,7.67
2017-10-12T06:29:37.201Z,7.30
2017-10-12T06:32:04.777Z,6.10
2017-10-12T06:34:32.329Z,7.27
2017-10-12T06:36:59.920Z,7.30
2017-10-12T06:39:27.470Z,6.40
2017-10-12T06:41:55.102Z,7.67
2017-10-12T06:44:23.613Z,7.63
2017-10-12T06:46:51.174Z,6.90
2017-10-12T06:49:18.757Z,6.90
2017-10-12T06:51:46.369Z,8.67
2017-10-12T06:54:13.988Z,13.30
2017-10-12T06:56:41.549Z,12.10
2017-10-12T06:59:09.157Z,10.03
2017-10-12T07:01:36.763Z,9.70
2017-10-12T07:04:04.325Z,9.60
2017-10-12T07:06:31.933Z,10.33
2017-10-12T07:08:59.490Z,9.03
2017-10-12T07:11:27.069Z,9.27
2017-10-12T07:13:54.657Z,9.77
2017-10-12T07:16:22.257Z,9.47
2017-10-12T07:18:49.820Z,8.90
2017-10-12T07:21:17.433Z,10.33
2017-10-12T07:23:44.985Z,9.13
2017-10-12T07:26:12.569Z,9.13
2017-10-12T07:28:40.214Z,8.77
2017-10-12T07:31:08.521Z,9.57
2017-10-12T07:33:36.098Z,9.70
2017-10-12T07:36:04.499Z,9.40
2017-10-12T07:38:32.057Z,9.97
2017-10-12T07:40:59.637Z,10.50
2017-10-12T07:43:27.241Z,11.60
2017-10-12T07:45:54.825Z,11.07
2017-10-12T07:48:22.826Z,19.43
2017-10-12T07:50:50.433Z,13.27
2017-10-12T07:53:18.794Z,12.83
2017-10-12T07:55:46.356Z,12.73
2017-10-12T07:58:13.982Z,10.70
2017-10-12T08:00:42.162Z,10.93
2017-10-12T08:03:09.722Z,10.50
2017-10-12T08:05:37.333Z,10.93
2017-10-12T08:08:05.554Z,11.33
2017-10-12T08:10:33.111Z,11.97
2017-10-12T08:13:00.704Z,12.57
2017-10-12T08:15:29.036Z,10.80
2017-10-12T08:17:57.054Z,11.43
2017-10-12T08:20:24.768Z,10.97
2017-10-12T08:22:52.352Z,11.43
2017-10-12T08:25:19.966Z,12.00
2017-10-12T08:27:47.577Z,11.13
2017-10-12T08:30:15.138Z,11.00
2017-10-12T08:32:42.721Z,10.47
2017-10-12T08:35:10.321Z,10.40
2017-10-12T08:37:37.879Z,11.23
2017-10-12T08:40:05.442Z,11.83
2017-10-12T08:42:33.025Z,9.73
2017-10-12T08:45:00.585Z,11.60
2017-10-12T08:47:28.177Z,11.60
2017-10-12T08:49:56.289Z,13.77
2017-10-12T08:52:23.873Z,12.50
2017-10-12T08:54:51.461Z,13.60
2017-10-12T08:57:19.046Z,13.40
2017-10-12T08:59:46.629Z,12.17
2017-10-12T09:02:14.189Z,12.30
2017-10-12T09:04:41.801Z,13.70
2017-10-12T09:07:09.382Z,12.23
2017-10-12T09:09:36.941Z,13.60
2017-10-12T09:12:04.530Z,15.80
2017-10-12T09:14:32.121Z,14.13
2017-10-12T09:17:00.723Z,14.17
2017-10-12T09:19:28.313Z,13.90
2017-10-12T09:21:55.874Z,13.77
2017-10-12T09:24:23.445Z,13.90
2017-10-12T09:26:51.085Z,12.67
2017-10-12T09:29:18.725Z,13.20
2017-10-12T09:31:46.957Z,13.43
2017-10-12T09:34:14.585Z,11.90
2017-10-12T09:36:42.220Z,11.60
2017-10-12T09:39:09.837Z,12.40
2017-10-12T09:41:37.501Z,11.30
2017-10-12T09:44:05.603Z,11.53
2017-10-12T09:46:33.217Z,11.53
2017-10-12T09:49:00.830Z,10.60
2017-10-12T09:51:28.471Z,11.37
2017-10-12T09:53:56.069Z,10.07
2017-10-12T09:56:23.649Z,9.77
2017-10-12T09:58:51.298Z,9.47
2017-10-12T10:01:18.913Z,10.20
2017-10-12T10:03:47.033Z,10.67
2017-10-12T10:06:14.629Z,9.70
2017-10-12T10:08:42.221Z,11.00
2017-10-12T10:11:10.761Z,10.30
2017-10-12T10:13:39.085Z,9.70
2017-10-12T10:16:06.670Z,15.10
2017-10-12T10:18:34.272Z,11.90
2017-10-12T10:21:01.833Z,12.87
2017-10-12T10:23:29.440Z,16.50
2017-10-12T19:16:54.298Z,7.30
2017-10-12T19:19:21.858Z,7.40
2017-10-12T19:21:49.451Z,7.07
2017-10-12T19:24:17.114Z,7.67
2017-10-12T19:26:44.734Z,8.47
2017-10-12T19:29:12.391Z,8.10
2017-10-12T19:31:40.033Z,8.97
2017-10-12T19:34:07.678Z,8.80
2017-10-12T19:36:35.266Z,8.90
2017-10-12T19:39:02.938Z,9.07
2017-10-12T19:41:30.517Z,8.43
2017-10-12T19:43:58.107Z,8.93
2017-10-12T19:46:25.698Z,8.90
2017-10-12T19:48:53.278Z,9.43
2017-10-12T19:51:27.782Z,8.90
2017-10-12T19:53:49.258Z,9.90
2017-10-12T19:56:16.847Z,9.40
2017-10-12T20:01:15.568Z,9.47
2017-10-12T20:03:46.134Z,9.07
2017-10-12T20:06:15.224Z,9.13
2017-10-12T20:08:42.879Z,10.20
2017-10-12T20:13:38.903Z,10.00
2017-10-12T20:16:07.221Z,10.53
2017-10-12T20:18:34.896Z,10.20
2017-10-12T20:21:02.542Z,10.93
2017-10-12T20:23:31.099Z,10.23
2017-10-12T20:25:59.940Z,9.93
2017-10-12T20:28:29.202Z,10.50
2017-10-12T20:30:56.806Z,9.40
2017-10-12T20:33:26.033Z,11.80
2017-10-12T20:35:55.207Z,10.43
2017-10-12T20:38:25.093Z,10.60
2017-10-12T20:40:55.386Z,9.37
2017-10-12T20:43:25.044Z,10.13
2017-10-12T20:45:55.688Z,9.30
2017-10-12T20:48:23.928Z,10.60
2017-10-12T20:50:51.538Z,10.30
2017-10-12T20:53:19.161Z,10.33
2017-10-12T20:55:46.729Z,12.00
2017-10-12T20:58:14.285Z,11.20
2017-10-12T21:00:41.927Z,9.50
2017-10-12T21:03:09.494Z,9.27
2017-10-12T21:05:37.087Z,10.03
2017-10-12T21:08:04.693Z,12.10
2017-10-12T21:10:32.254Z,11.17
2017-10-12T21:12:59.841Z,10.03
2017-10-12T21:15:27.478Z,10.50
2017-10-12T21:17:55.073Z,11.53
2017-10-12T21:20:22.658Z,11.50
2017-10-12T21:22:50.274Z,11.83
2017-10-12T21:25:17.873Z,11.70
2017-10-12T21:27:46.143Z,12.57
2017-10-12T21:30:13.931Z,12.00
2017-10-12T21:32:42.931Z,11.37
2017-10-12T21:35:15.193Z,11.93
2017-10-12T21:37:49.856Z,12.63
2017-10-12T21:40:18.551Z,11.03
2017-10-12T21:42:47.893Z,11.73
2017-10-12T21:45:17.471Z,12.10
2017-10-12T21:47:45.337Z,13.60
2017-10-12T21:50:13.623Z,12.43
2017-10-12T21:52:46.858Z,12.83
2017-10-12T21:55:14.441Z,12.10
2017-10-12T21:57:42.018Z,13.13
2017-10-12T22:00:10.405Z,12.43
2017-10-12T22:02:38.019Z,13.03
2017-10-12T22:05:05.586Z,13.80
2017-10-12T22:07:33.525Z,15.07
2017-10-12T22:10:01.113Z,16.20
2017-10-12T22:12:28.676Z,15.57
2017-10-12T22:14:56.286Z,14.90
2017-10-12T22:17:23.877Z,15.37
2017-10-12T22:19:51.465Z,16.10
2017-10-12T22:22:19.080Z,14.67
2017-10-12T22:24:46.673Z,15.00
2017-10-12T22:27:14.267Z,15.77
2017-10-12T22:29:42.282Z,15.37
2017-10-12T22:32:10.553Z,14.00
2017-10-12T22:34:38.709Z,14.73
2017-10-12T22:37:06.326Z,14.80
2017-10-12T22:39:33.905Z,14.03
2017-10-12T22:42:02.285Z,14.40
2017-10-12T22:44:29.929Z,13.27
2017-10-12T22:47:07.367Z,14.00
2017-10-12T22:49:35.564Z,15.10
2017-10-12T22:52:03.157Z,12.80
2017-10-12T22:54:30.729Z,13.67
2017-10-12T22:56:58.366Z,14.57
2017-10-12T23:01:31.748Z,14.03
2017-10-12T23:03:59.345Z,12.57
2017-10-12T23:06:27.693Z,13.70
2017-10-12T23:08:55.781Z,14.03
2017-10-12T23:11:23.394Z,12.50
2017-10-12T23:13:50.953Z,14.43
2017-10-12T23:16:18.562Z,13.63
2017-10-12T23:18:46.924Z,11.97
2017-10-12T23:21:14.514Z,12.77
2017-10-12T23:23:42.100Z,13.57
2017-10-12T23:26:09.685Z,13.60
2017-10-12T23:28:37.264Z,12.57
2017-10-12T23:31:04.849Z,11.53
2017-10-12T23:33:32.449Z,11.80
2017-10-12T23:36:00.755Z,12.57
2017-10-12T23:38:28.357Z,12.33
2017-10-12T23:40:55.949Z,12.03
2017-10-12T23:43:23.508Z,11.37
2017-10-12T23:45:51.068Z,12.47
2017-10-12T23:48:18.684Z,11.70
2017-10-12T23:50:47.034Z,12.03
2017-10-12T23:53:14.599Z,11.23
2017-10-12T23:55:42.205Z,11.67
2017-10-12T23:58:09.769Z,11.93
